Time;durP1;ratioP1;P1;durP2;ratioP2;P2;SDS_P1;SDS_P2;PMS_P1;PMS_P2;Temp;Humidity;BMP_temperature;BMP_pressure;BME280_temperature;BME280_humidity;BME280_pressure;Samples;Min_cycle;Max_cycle;Signal;HPM_P1;HPM_P2
2023/10/13 00:01:35;;;;;;;;;;;;;;;;;;7398460;19;19966;-90
2023/10/13 00:04:17;;;;;;;0.30;0.30;;;;;;;;;;7397891;19;20179;-90
2023/10/13 00:06:45;;;;;;;0.87;0.83;;;;;;;;;;7389523;19;20381;-89
2023/10/13 00:09:14;;;;;;;0.40;0.40;;;;;;;;;;7394320;19;20349;-89
2023/10/13 00:11:44;;;;;;;0.40;0.40;;;;;;;;;;7390025;19;20416;-89
2023/10/13 00:14:16;;;;;;;0.90;0.90;;;;;;;;;;7395066;19;20408;-89
2023/10/13 00:19:51;;;;;;;0.52;0.52;;;;;;;;;;7386126;19;20393;-88
2023/10/13 00:22:19;;;;;;;0.55;0.55;;;;;;;;;;7396448;19;20361;-89
2023/10/13 00:24:47;;;;;;;0.40;0.40;;;;;;;;;;7386430;19;20363;-89
2023/10/13 00:27:29;;;;;;;0.52;0.50;;;;;;;;;;7392988;19;20336;-89
2023/10/13 00:30:21;;;;;;;0.40;0.40;;;;;;;;;;7393800;19;20348;-88
2023/10/13 00:32:55;;;;;;;0.50;0.50;;;;;;;;;;7398467;19;20499;-88
2023/10/13 00:35:29;;;;;;;0.43;0.43;;;;;;;;;;7404847;19;20360;-90
2023/10/13 00:37:57;;;;;;;0.47;0.47;;;;;;;;;;7418692;19;20889;-90
2023/10/13 00:45:54;;;;;;;0.45;0.45;;;;;;;;;;7386444;19;20344;-89
2023/10/13 00:48:28;;;;;;;0.30;0.30;;;;;;;;;;7388597;19;20465;-87
2023/10/13 00:50:59;;;;;;;0.60;0.50;;;;;;;;;;7385658;19;20333;-89
2023/10/13 00:53:26;;;;;;;1.20;0.90;;;;;;;;;;7383809;19;20359;-89
2023/10/13 00:55:55;;;;;;;0.50;0.50;;;;;;;;;;7393557;19;20333;-89
2023/10/13 00:58:24;;;;;;;0.70;0.63;;;;;;;;;;7391957;19;20390;-89
2023/10/13 01:01:17;;;;;;;0.43;0.43;;;;;;;;;;7381399;19;20361;-88
2023/10/13 01:03:48;;;;;;;0.52;0.52;;;;;;;;;;7378436;19;20332;-89
2023/10/13 01:06:19;;;;;;;0.73;0.73;;;;;;;;;;7386008;19;20679;-90
2023/10/13 01:08:51;;;;;;;0.40;0.40;;;;;;;;;;7384130;19;20400;-90
2023/10/13 01:11:29;;;;;;;0.60;0.60;;;;;;;;;;7385812;19;20916;-89
2023/10/13 01:13:57;;;;;;;0.70;0.70;;;;;;;;;;7378749;19;20403;-89
2023/10/13 01:16:26;;;;;;;0.45;0.45;;;;;;;;;;7385524;19;20718;-89
2023/10/13 01:18:59;;;;;;;0.70;0.70;;;;;;;;;;7385267;19;20368;-90
2023/10/13 01:21:27;;;;;;;1.00;0.90;;;;;;;;;;7387196;19;20404;-89
2023/10/13 01:23:54;;;;;;;0.70;0.70;;;;;;;;;;7393126;19;20439;-90
2023/10/13 01:26:24;;;;;;;0.70;0.70;;;;;;;;;;7381763;19;20748;-90
2023/10/13 01:28:54;;;;;;;0.40;0.40;;;;;;;;;;7390879;19;20357;-90
2023/10/13 01:31:29;;;;;;;0.70;0.70;;;;;;;;;;7388641;19;20376;-89
2023/10/13 01:33:59;;;;;;;1.60;0.90;;;;;;;;;;7388758;19;20369;-89
2023/10/13 01:36:27;;;;;;;1.60;0.70;;;;;;;;;;7388252;19;20377;-90
2023/10/13 01:38:54;;;;;;;0.43;0.43;;;;;;;;;;7388846;19;20359;-89
2023/10/13 01:41:22;;;;;;;0.65;0.65;;;;;;;;;;7383810;19;20372;-90
2023/10/13 01:43:50;;;;;;;0.80;0.80;;;;;;;;;;7384536;19;20349;-89
2023/10/13 01:46:21;;;;;;;0.70;0.70;;;;;;;;;;7385023;19;20337;-90
2023/10/13 01:48:48;;;;;;;1.08;0.77;;;;;;;;;;7380221;19;20456;-89
2023/10/13 01:51:15;;;;;;;0.87;0.87;;;;;;;;;;7379518;19;20373;-89
2023/10/13 01:53:42;;;;;;;0.60;0.60;;;;;;;;;;7385637;19;20899;-89
2023/10/13 01:56:14;;;;;;;0.60;0.60;;;;;;;;;;7381108;19;20337;-90
2023/10/13 01:58:47;;;;;;;0.70;0.70;;;;;;;;;;7383310;19;20846;-90
2023/10/13 02:01:26;;;;;;;0.60;0.60;;;;;;;;;;7391038;19;20356;-90
2023/10/13 02:04:04;;;;;;;0.52;0.52;;;;;;;;;;7386260;19;21151;-90
2023/10/13 02:06:33;;;;;;;0.40;0.40;;;;;;;;;;7386251;19;20336;-88
2023/10/13 02:09:13;;;;;;;0.95;0.95;;;;;;;;;;7388477;19;20464;-90
2023/10/13 02:11:41;;;;;;;0.50;0.50;;;;;;;;;;7387280;19;20352;-89
2023/10/13 02:14:11;;;;;;;0.63;0.63;;;;;;;;;;7394683;19;20332;-90
2023/10/13 02:16:41;;;;;;;0.50;0.50;;;;;;;;;;7390510;19;20695;-89
2023/10/13 02:19:08;;;;;;;0.77;0.77;;;;;;;;;;7388039;19;20696;-89
2023/10/13 02:21:39;;;;;;;0.70;0.70;;;;;;;;;;7389086;19;20355;-90
2023/10/13 02:24:12;;;;;;;0.50;0.50;;;;;;;;;;7392623;19;20353;-90
2023/10/13 02:26:40;;;;;;;0.50;0.50;;;;;;;;;;7387126;19;20427;-90
2023/10/13 02:29:07;;;;;;;1.27;0.77;;;;;;;;;;7397774;19;20328;-90
2023/10/13 02:31:35;;;;;;;1.40;0.88;;;;;;;;;;7394402;19;20357;-89
2023/10/13 02:34:11;;;;;;;0.60;0.60;;;;;;;;;;7399618;19;20429;-89
2023/10/13 02:36:51;;;;;;;0.65;0.65;;;;;;;;;;7398372;19;20943;-89
2023/10/13 02:39:26;;;;;;;0.68;0.68;;;;;;;;;;7398023;19;20361;-89
2023/10/13 02:41:55;;;;;;;0.47;0.47;;;;;;;;;;7390767;19;20351;-89
2023/10/13 02:44:31;;;;;;;1.00;0.52;;;;;;;;;;7393067;19;20356;-90
2023/10/13 02:46:58;;;;;;;0.35;0.35;;;;;;;;;;7403107;19;20362;-90
2023/10/13 02:49:26;;;;;;;0.30;0.30;;;;;;;;;;7403477;19;20408;-90
2023/10/13 02:51:58;;;;;;;0.50;0.50;;;;;;;;;;7391388;19;20445;-90
2023/10/13 02:54:31;;;;;;;0.43;0.43;;;;;;;;;;7391852;19;20345;-90
2023/10/13 02:57:03;;;;;;;0.52;0.52;;;;;;;;;;7391403;19;20355;-89
2023/10/13 02:59:34;;;;;;;0.50;0.50;;;;;;;;;;7388557;19;20373;-90
2023/10/13 03:02:07;;;;;;;0.30;0.30;;;;;;;;;;7391434;19;20341;-90
2023/10/13 03:04:38;;;;;;;2.10;0.50;;;;;;;;;;7387272;19;20973;-89
2023/10/13 03:07:05;;;;;;;0.50;0.50;;;;;;;;;;7394493;19;20379;-89
2023/10/13 03:09:37;;;;;;;0.40;0.40;;;;;;;;;;7386096;19;20357;-90
2023/10/13 03:12:04;;;;;;;0.70;0.70;;;;;;;;;;7392665;19;20344;-89
2023/10/13 03:14:33;;;;;;;0.63;0.63;;;;;;;;;;7388806;19;20847;-89
2023/10/13 03:17:05;;;;;;;0.50;0.50;;;;;;;;;;7385536;19;20694;-90
2023/10/13 03:19:33;;;;;;;0.30;0.30;;;;;;;;;;7383679;19;20355;-89
2023/10/13 03:22:11;;;;;;;0.60;0.60;;;;;;;;;;7387613;19;20427;-90
2023/10/13 03:24:45;;;;;;;0.60;0.60;;;;;;;;;;7393084;19;20435;-90
2023/10/13 03:27:23;;;;;;;0.60;0.60;;;;;;;;;;7388292;19;20363;-90
2023/10/13 03:29:54;;;;;;;0.50;0.50;;;;;;;;;;7390486;19;20983;-90
2023/10/13 03:32:26;;;;;;;0.65;0.50;;;;;;;;;;7397264;19;20356;-89
2023/10/13 03:37:39;;;;;;;0.70;0.70;;;;;;;;;;7391812;19;20734;-90
2023/10/13 03:42:58;;;;;;;0.50;0.50;;;;;;;;;;7388254;19;20352;-90
2023/10/13 03:45:26;;;;;;;0.40;0.40;;;;;;;;;;7386133;19;20412;-90
2023/10/13 03:47:53;;;;;;;1.55;0.70;;;;;;;;;;7388894;19;20352;-90
2023/10/13 03:50:32;;;;;;;0.60;0.60;;;;;;;;;;7385306;19;20341;-90
2023/10/13 03:52:59;;;;;;;0.47;0.47;;;;;;;;;;7391044;19;20356;-89
2023/10/13 03:55:28;;;;;;;0.45;0.45;;;;;;;;;;7391964;19;20340;-89
2023/10/13 03:57:59;;;;;;;1.10;0.75;;;;;;;;;;7396722;19;20373;-90
2023/10/13 04:00:29;;;;;;;0.60;0.60;;;;;;;;;;7387328;19;20361;-90
2023/10/13 04:05:40;;;;;;;1.10;0.80;;;;;;;;;;7389502;19;20904;-89
2023/10/13 04:16:34;;;;;;;0.80;0.80;;;;;;;;;;7386626;19;20360;-89
2023/10/13 04:32:19;;;;;;;0.50;0.50;;;;;;;;;;7393523;19;20345;-89
2023/10/13 04:34:46;;;;;;;0.60;0.60;;;;;;;;;;7394958;19;20408;-89
2023/10/13 04:37:29;;;;;;;0.40;0.40;;;;;;;;;;7394167;19;20884;-89
2023/10/13 04:40:14;;;;;;;0.47;0.47;;;;;;;;;;7395012;19;20479;-89
2023/10/13 04:42:53;;;;;;;0.43;0.43;;;;;;;;;;7387911;19;20986;-89
2023/10/13 04:50:50;;;;;;;0.40;0.40;;;;;;;;;;7380735;19;20340;-89
2023/10/13 04:54:00;;;;;;;0.75;0.75;;;;;;;;;;7388942;19;20375;-89
2023/10/13 04:59:17;;;;;;;0.40;0.40;;;;;;;;;;7393372;19;20373;-89
2023/10/13 05:04:38;;;;;;;0.60;0.60;;;;;;;;;;7401827;19;20336;-89
2023/10/13 06:29:47;;;;;;;;;;;;;;;;;;7415847;19;19935;-91
2023/10/13 06:32:16;;;;;;;;;;;;;;;;;;7427186;19;20254;-87
2023/10/13 06:34:45;;;;;;;;;;;;;;;;;;7411939;19;19926;-87
2023/10/13 06:37:26;;;;;;;;;;;;;;;;;;7400927;19;19939;-87
2023/10/13 06:39:56;;;;;;;;;;;;;;;;;;7401487;19;20308;-87
2023/10/13 06:42:27;;;;;;;;;;;;;;;;;;7401139;19;19982;-87
2023/10/13 06:45:00;;;;;;;0.20;0.20;;;;;;;;;;7399833;19;20636;-87
2023/10/13 06:47:27;;;;;;;0.70;0.70;;;;;;;;;;7398471;19;20349;-87
2023/10/13 06:49:56;;;;;;;0.73;0.63;;;;;;;;;;7397717;19;20377;-89
2023/10/13 06:52:23;;;;;;;0.60;0.60;;;;;;;;;;7401159;19;20357;-88
2023/10/13 06:54:50;;;;;;;0.88;0.88;;;;;;;;;;7401500;19;20363;-88
2023/10/13 06:57:23;;;;;;;0.30;0.30;;;;;;;;;;7401086;19;20372;-88
2023/10/13 06:59:51;;;;;;;0.65;0.65;;;;;;;;;;7399704;19;20368;-88
2023/10/13 07:02:21;;;;;;;0.55;0.47;;;;;;;;;;7400452;19;20711;-87
2023/10/13 07:05:07;;;;;;;0.40;0.40;;;;;;;;;;7401812;19;20341;-88
2023/10/13 07:07:36;;;;;;;0.30;0.30;;;;;;;;;;7399156;19;20460;-87
2023/10/13 07:10:07;;;;;;;0.50;0.50;;;;;;;;;;7400934;19;20348;-87
2023/10/13 07:12:34;;;;;;;0.30;0.30;;;;;;;;;;7401628;19;20145;-87
2023/10/13 07:15:19;;;;;;;0.57;0.57;;;;;;;;;;7399520;19;20133;-87
2023/10/13 07:17:47;;;;;;;0.63;0.63;;;;;;;;;;7406601;19;20665;-88
2023/10/13 07:20:15;;;;;;;0.30;0.30;;;;;;;;;;7405459;19;20169;-88
2023/10/13 07:22:54;;;;;;;2.30;0.68;;;;;;;;;;7402101;19;20149;-88
2023/10/13 07:25:32;;;;;;;0.40;0.40;;;;;;;;;;7398001;19;20145;-90
2023/10/13 07:28:00;;;;;;;0.40;0.40;;;;;;;;;;7403335;19;20144;-88
2023/10/13 07:30:49;;;;;;;0.30;0.30;;;;;;;;;;7402138;19;20594;-89
2023/10/13 07:33:19;;;;;;;0.73;0.73;;;;;;;;;;7402899;19;20136;-89
2023/10/13 07:35:50;;;;;;;0.30;0.30;;;;;;;;;;7401471;19;20137;-89
2023/10/13 07:38:21;;;;;;;0.85;0.85;;;;;;;;;;7397288;19;20411;-89
2023/10/13 07:40:51;;;;;;;1.15;0.95;;;;;;;;;;7396830;19;20345;-90
2023/10/13 07:43:23;;;;;;;0.70;0.70;;;;;;;;;;7399359;19;20444;-88
2023/10/13 07:45:58;;;;;;;0.40;0.40;;;;;;;;;;7395725;19;20747;-89
2023/10/13 07:48:25;;;;;;;0.55;0.55;;;;;;;;;;7397454;19;20372;-89
2023/10/13 07:51:18;;;;;;;0.50;0.50;;;;;;;;;;7398799;19;20678;-89
2023/10/13 07:53:49;;;;;;;1.08;1.08;;;;;;;;;;7400255;19;20909;-88
2023/10/13 07:56:20;;;;;;;0.50;0.50;;;;;;;;;;7397728;19;20373;-89
2023/10/13 07:59:00;;;;;;;0.43;0.43;;;;;;;;;;7399975;19;20877;-87
2023/10/13 08:01:30;;;;;;;0.30;0.30;;;;;;;;;;7400434;19;20352;-88
2023/10/13 08:04:14;;;;;;;0.45;0.45;;;;;;;;;;7402480;19;20341;-90
2023/10/13 08:06:43;;;;;;;0.30;0.30;;;;;;;;;;7399007;19;20348;-88
2023/10/13 08:11:57;;;;;;;4.20;1.00;;;;;;;;;;7405606;19;20357;-88
2023/10/13 08:14:28;;;;;;;5.70;0.80;;;;;;;;;;7403260;19;20373;-87
2023/10/13 08:17:11;;;;;;;0.77;0.77;;;;;;;;;;7400991;19;20349;-88
2023/10/13 08:19:44;;;;;;;0.50;0.50;;;;;;;;;;7401255;19;20355;-87
2023/10/13 08:43:11;;;;;;;0.45;0.45;;;;;;;;;;7396495;19;20333;-89
2023/10/13 08:51:43;;;;;;;0.70;0.70;;;;;;;;;;7415347;19;20350;-92
2023/10/13 08:53:58;;;;;;;0.40;0.40;;;;;;;;;;7417822;19;20348;-90
2023/10/13 08:56:35;;;;;;;0.57;0.57;;;;;;;;;;7391026;19;20344;-91
2023/10/13 08:59:06;;;;;;;0.70;0.70;;;;;;;;;;7391781;19;20368;-89
2023/10/13 09:01:35;;;;;;;3.20;1.20;;;;;;;;;;7393130;19;20702;-92
2023/10/13 09:09:58;;;;;;;0.43;0.43;;;;;;;;;;7405792;19;20345;-91
2023/10/13 09:15:06;;;;;;;1.00;1.00;;;;;;;;;;7398018;19;20345;-88
2023/10/13 09:23:12;;;;;;;0.43;0.43;;;;;;;;;;7397529;19;20371;-89
2023/10/13 09:25:53;;;;;;;0.55;0.55;;;;;;;;;;7397464;19;20325;-89
2023/10/13 09:28:25;;;;;;;0.50;0.50;;;;;;;;;;7396191;19;20328;-89
2023/10/13 09:30:53;;;;;;;0.50;0.50;;;;;;;;;;7392563;19;20341;-88
2023/10/13 09:33:32;;;;;;;0.60;0.60;;;;;;;;;;7397276;19;20351;-88
2023/10/13 09:36:00;;;;;;;1.90;1.00;;;;;;;;;;7394323;19;20684;-90
2023/10/13 09:38:28;;;;;;;0.60;0.60;;;;;;;;;;7391469;19;20356;-87
2023/10/13 09:41:01;;;;;;;0.40;0.40;;;;;;;;;;7393404;19;20363;-90
2023/10/13 09:43:31;;;;;;;0.53;0.53;;;;;;;;;;7385537;19;20384;-85
2023/10/13 09:46:17;;;;;;;0.47;0.47;;;;;;;;;;7392472;19;20443;-88
2023/10/13 09:48:52;;;;;;;0.40;0.40;;;;;;;;;;7397430;19;20352;-87
2023/10/13 09:51:22;;;;;;;0.60;0.60;;;;;;;;;;7420848;19;20393;-86
2023/10/13 09:54:07;;;;;;;0.50;0.50;;;;;;;;;;7421069;19;20352;-86
2023/10/13 09:57:01;;;;;;;0.35;0.35;;;;;;;;;;7421818;19;20336;-88
2023/10/13 09:59:35;;;;;;;0.90;0.90;;;;;;;;;;7423880;19;20368;-89
2023/10/13 10:02:18;;;;;;;0.40;0.40;;;;;;;;;;7423895;19;20361;-87
2023/10/13 10:05:21;;;;;;;4.30;1.00;;;;;;;;;;7424913;19;20369;-89
2023/10/13 10:07:57;;;;;;;0.52;0.52;;;;;;;;;;7421159;19;20357;-89
2023/10/13 10:10:27;;;;;;;0.60;0.60;;;;;;;;;;7416692;19;20360;-89
2023/10/13 10:13:12;;;;;;;0.70;0.63;;;;;;;;;;7420821;19;20443;-84
2023/10/13 10:15:43;;;;;;;0.55;0.55;;;;;;;;;;7414994;19;20336;-83
2023/10/13 10:18:19;;;;;;;0.40;0.40;;;;;;;;;;7410389;19;20360;-84
2023/10/13 10:20:48;;;;;;;0.40;0.40;;;;;;;;;;7410505;19;20345;-85
2023/10/13 10:23:35;;;;;;;0.50;0.50;;;;;;;;;;7401485;19;20925;-86
2023/10/13 10:26:20;;;;;;;0.40;0.40;;;;;;;;;;7392932;19;20859;-84
2023/10/13 10:28:46;;;;;;;0.50;0.50;;;;;;;;;;7395415;19;20344;-85
2023/10/13 10:31:17;;;;;;;1.65;0.88;;;;;;;;;;7391788;19;20349;-90
2023/10/13 10:33:46;;;;;;;0.30;0.30;;;;;;;;;;7388365;19;20427;-89
2023/10/13 10:36:15;;;;;;;0.40;0.40;;;;;;;;;;7390634;19;20688;-89
2023/10/13 10:38:53;;;;;;;0.50;0.50;;;;;;;;;;7395904;19;20348;-89
2023/10/13 10:41:29;;;;;;;0.40;0.40;;;;;;;;;;7386606;19;20408;-86
2023/10/13 10:43:57;;;;;;;0.60;0.60;;;;;;;;;;7381506;19;20371;-88
2023/10/13 10:46:28;;;;;;;0.60;0.60;;;;;;;;;;7390493;19;20345;-87
2023/10/13 10:49:04;;;;;;;0.50;0.50;;;;;;;;;;7391651;19;20885;-87
2023/10/13 10:51:33;;;;;;;0.60;0.60;;;;;;;;;;7390209;19;21083;-88
2023/10/13 10:54:11;;;;;;;0.50;0.50;;;;;;;;;;7391379;19;20347;-88
2023/10/13 10:56:38;;;;;;;0.30;0.30;;;;;;;;;;7396266;19;20341;-88
2023/10/13 10:59:18;;;;;;;0.40;0.40;;;;;;;;;;7394363;19;20396;-88
2023/10/13 11:01:50;;;;;;;0.45;0.45;;;;;;;;;;7396602;19;20369;-88
2023/10/13 11:04:24;;;;;;;0.40;0.40;;;;;;;;;;7394400;19;20345;-88
2023/10/13 11:06:54;;;;;;;0.30;0.30;;;;;;;;;;7397460;19;20764;-87
2023/10/13 11:09:31;;;;;;;0.60;0.60;;;;;;;;;;7396155;19;20360;-87
2023/10/13 11:12:15;;;;;;;0.90;0.80;;;;;;;;;;7397239;19;20316;-88
2023/10/13 11:14:46;;;;;;;1.10;1.00;;;;;;;;;;7397558;19;20377;-88
2023/10/13 11:17:24;;;;;;;0.30;0.30;;;;;;;;;;7396991;19;20153;-88
2023/10/13 11:19:57;;;;;;;5.00;0.98;;;;;;;;;;7397978;19;20183;-88
2023/10/13 11:22:32;;;;;;;8.77;1.45;;;;;;;;;;7396267;19;20149;-87
2023/10/13 11:25:00;;;;;;;0.30;0.30;;;;;;;;;;7396779;19;20158;-85
2023/10/13 11:30:20;;;;;;;0.50;0.50;;;;;;;;;;7395905;19;20517;-86
2023/10/13 11:33:07;;;;;;;0.50;0.50;;;;;;;;;;7395570;19;20557;-85
2023/10/13 11:38:26;;;;;;;0.60;0.60;;;;;;;;;;7401167;19;20155;-86
2023/10/13 11:48:36;;;;;;;;;;;;;;;;;;7397334;19;19994;-86
2023/10/13 11:51:07;;;;;;;;;;;;;;;;;;7396890;19;19974;-86
2023/10/13 11:53:37;;;;;;;;;;;;;;;;;;7398557;19;19966;-86
2023/10/13 11:56:09;;;;;;;;;;;;;;;;;;7399111;19;20278;-88
2023/10/13 11:58:37;;;;;;;;;;;;;;;;;;7397126;19;19914;-86
2023/10/13 12:11:50;;;;;;;;;;;;;;;;;;7395633;19;19918;-86
2023/10/13 12:14:17;;;;;;;;;;;;;;;;;;7391135;19;19974;-86
2023/10/13 12:16:48;;;;;;;;;;;;;;;;;;7392838;19;19974;-86
2023/10/13 12:19:16;;;;;;;;;;;;;;;;;;7391719;19;19907;-87
2023/10/13 12:21:47;;;;;;;0.30;0.30;;;;;;;;;;7393399;19;20187;-89
2023/10/13 12:27:18;;;;;;;0.30;0.30;;;;;;;;;;7393061;19;20201;-88
2023/10/13 12:29:51;;;;;;;0.60;0.60;;;;;;;;;;7395272;19;20183;-87
2023/10/13 12:32:31;;;;;;;0.30;0.30;;;;;;;;;;7417675;19;20140;-88
2023/10/13 12:35:16;;;;;;;;;;;;;;;;;;7407564;19;20043;-88
2023/10/13 12:51:40;;;;;;;0.50;0.50;;;;;;;;;;7386140;19;20366;-86
2023/10/13 12:54:19;;;;;;;0.68;0.68;;;;;;;;;;7390858;19;20145;-88
2023/10/13 12:56:46;;;;;;;0.25;0.25;;;;;;;;;;7388177;19;20140;-86
2023/10/13 12:59:13;;;;;;;0.40;0.40;;;;;;;;;;7387410;19;20186;-86
2023/10/13 13:01:43;;;;;;;0.68;0.68;;;;;;;;;;7390921;19;20140;-86
2023/10/13 13:04:19;;;;;;;0.60;0.60;;;;;;;;;;7393408;19;20121;-85
2023/10/13 13:06:48;;;;;;;0.30;0.30;;;;;;;;;;7388084;19;20133;-90
2023/10/13 13:09:15;;;;;;;1.85;1.17;;;;;;;;;;7391729;19;20129;-90
2023/10/13 13:11:43;;;;;;;1.05;1.05;;;;;;;;;;7395354;19;20196;-92
2023/10/13 13:14:09;;;;;;;0.95;0.82;;;;;;;;;;7393474;19;20163;-89
2023/10/13 13:16:38;;;;;;;0.50;0.50;;;;;;;;;;7392662;19;20148;-88
2023/10/13 13:19:14;;;;;;;0.30;0.30;;;;;;;;;;7389033;19;20137;-86
2023/10/13 13:21:41;;;;;;;0.40;0.40;;;;;;;;;;7389092;19;20347;-87
2023/10/13 13:24:13;;;;;;;0.50;0.50;;;;;;;;;;7387090;19;20386;-88
2023/10/13 13:26:40;;;;;;;0.50;0.50;;;;;;;;;;7387491;19;20352;-88
2023/10/13 13:29:10;;;;;;;0.80;0.80;;;;;;;;;;7384206;19;20460;-87
2023/10/13 13:31:42;;;;;;;0.38;0.38;;;;;;;;;;7381925;19;20423;-89
2023/10/13 13:34:12;;;;;;;0.40;0.40;;;;;;;;;;7389838;19;20367;-88
2023/10/13 13:36:44;;;;;;;0.50;0.50;;;;;;;;;;7392881;19;20320;-86
2023/10/13 13:39:11;;;;;;;0.60;0.60;;;;;;;;;;7398475;19;20378;-85
2023/10/13 13:41:38;;;;;;;0.70;0.60;;;;;;;;;;7396103;19;20344;-83
2023/10/13 13:44:15;;;;;;;1.60;0.70;;;;;;;;;;7396656;19;20360;-85
2023/10/13 13:46:42;;;;;;;0.70;0.70;;;;;;;;;;7398555;19;20360;-85
2023/10/13 13:49:18;;;;;;;1.30;0.70;;;;;;;;;;7394213;19;20344;-91
2023/10/13 13:51:51;;;;;;;0.40;0.40;;;;;;;;;;7393790;19;20958;-87
2023/10/13 13:54:19;;;;;;;0.60;0.60;;;;;;;;;;7392267;19;20369;-86
2023/10/13 13:56:47;;;;;;;0.68;0.68;;;;;;;;;;7391704;19;20344;-86
2023/10/13 13:59:16;;;;;;;0.50;0.50;;;;;;;;;;7399498;19;20373;-87
2023/10/13 14:01:44;;;;;;;0.40;0.40;;;;;;;;;;7396581;19;20344;-87
2023/10/13 14:04:11;;;;;;;0.57;0.57;;;;;;;;;;7397170;19;20363;-87
2023/10/13 14:06:38;;;;;;;0.30;0.30;;;;;;;;;;7398913;19;20336;-87
2023/10/13 14:09:14;;;;;;;0.40;0.40;;;;;;;;;;7398233;19;20185;-89
2023/10/13 14:16:53;;;;;;;;;;;;;;;;;;7412621;19;20042;-89
2023/10/13 14:19:29;;;;;;;0.30;0.30;;;;;;;;;;7411912;19;20187;-89
2023/10/13 14:21:56;;;;;;;0.63;0.63;;;;;;;;;;7395594;19;20536;-88
2023/10/13 14:24:43;;;;;;;0.60;0.60;;;;;;;;;;7397196;19;20153;-88
2023/10/13 14:27:17;;;;;;;1.10;0.60;;;;;;;;;;7397720;19;20360;-88
2023/10/13 14:29:44;;;;;;;1.00;0.70;;;;;;;;;;7394795;19;20329;-88
2023/10/13 14:32:14;;;;;;;1.50;0.80;;;;;;;;;;7395774;19;20364;-87
2023/10/13 14:34:42;;;;;;;0.52;0.52;;;;;;;;;;7394438;19;20356;-88
2023/10/13 14:37:13;;;;;;;0.35;0.35;;;;;;;;;;7397747;19;20224;-86
2023/10/13 14:39:40;;;;;;;0.30;0.30;;;;;;;;;;7397329;19;20153;-90
2023/10/13 14:42:07;;;;;;;0.35;0.35;;;;;;;;;;7398397;19;20212;-88
2023/10/13 14:44:35;;;;;;;0.30;0.30;;;;;;;;;;7397597;19;20209;-89
2023/10/13 14:47:02;;;;;;;0.30;0.30;;;;;;;;;;7395660;19;20149;-87
2023/10/13 14:49:46;;;;;;;0.60;0.60;;;;;;;;;;7397315;19;20641;-89
2023/10/13 14:52:17;;;;;;;0.30;0.30;;;;;;;;;;7399802;19;20137;-87
2023/10/13 14:54:44;;;;;;;0.30;0.30;;;;;;;;;;7398224;19;20145;-89
2023/10/13 14:57:11;;;;;;;0.52;0.52;;;;;;;;;;7396620;19;20140;-88
2023/10/13 14:59:38;;;;;;;0.30;0.30;;;;;;;;;;7396721;19;20181;-87
2023/10/13 15:02:06;;;;;;;6.30;1.20;;;;;;;;;;7399448;19;20137;-87
2023/10/13 15:04:34;;;;;;;1.17;0.65;;;;;;;;;;7395218;19;20200;-89
2023/10/13 15:07:05;;;;;;;0.63;0.63;;;;;;;;;;7394145;19;20385;-87
2023/10/13 15:09:33;;;;;;;1.00;0.68;;;;;;;;;;7398330;19;20353;-87
2023/10/13 15:12:05;;;;;;;0.57;0.57;;;;;;;;;;7401288;19;20363;-89
2023/10/13 15:14:33;;;;;;;0.50;0.50;;;;;;;;;;7418525;19;20337;-87
2023/10/13 15:17:00;;;;;;;0.75;0.75;;;;;;;;;;7400505;19;20417;-88
2023/10/13 15:19:29;;;;;;;0.40;0.40;;;;;;;;;;7394754;19;20377;-88
2023/10/13 15:21:57;;;;;;;0.50;0.50;;;;;;;;;;7397108;19;20353;-87
2023/10/13 15:24:25;;;;;;;0.40;0.40;;;;;;;;;;7396682;19;20810;-87
2023/10/13 15:27:02;;;;;;;1.30;0.90;;;;;;;;;;7397720;19;20435;-88
2023/10/13 15:29:35;;;;;;;1.10;1.00;;;;;;;;;;7394615;19;20348;-88
2023/10/13 15:32:05;;;;;;;0.50;0.50;;;;;;;;;;7396012;19;20354;-88
2023/10/13 15:34:32;;;;;;;0.40;0.40;;;;;;;;;;7408160;19;20364;-88
2023/10/13 15:37:00;;;;;;;0.80;0.55;;;;;;;;;;7398508;19;21000;-87
2023/10/13 15:39:28;;;;;;;0.60;0.60;;;;;;;;;;7398320;19;20337;-88
2023/10/13 15:41:58;;;;;;;0.32;0.32;;;;;;;;;;7399689;19;20344;-86
2023/10/13 15:44:29;;;;;;;0.55;0.55;;;;;;;;;;7397880;19;20377;-84
2023/10/13 15:46:59;;;;;;;1.85;0.80;;;;;;;;;;7398941;19;20361;-84
2023/10/13 15:49:29;;;;;;;0.40;0.40;;;;;;;;;;7399149;19;20364;-86
2023/10/13 15:51:57;;;;;;;0.40;0.40;;;;;;;;;;7401544;19;20925;-84
2023/10/13 15:54:24;;;;;;;0.50;0.50;;;;;;;;;;7398489;19;20353;-86
2023/10/13 15:56:51;;;;;;;0.30;0.30;;;;;;;;;;7399946;19;20361;-84
2023/10/13 15:59:17;;;;;;;0.60;0.60;;;;;;;;;;7395872;19;20412;-85
2023/10/13 16:01:46;;;;;;;0.38;0.38;;;;;;;;;;7395182;19;20385;-84
2023/10/13 16:04:14;;;;;;;0.40;0.40;;;;;;;;;;7394184;19;20358;-85
2023/10/13 16:06:50;;;;;;;0.60;0.60;;;;;;;;;;7395262;19;20374;-85
2023/10/13 16:09:22;;;;;;;0.40;0.40;;;;;;;;;;7396781;19;20360;-86
2023/10/13 16:11:51;;;;;;;0.40;0.40;;;;;;;;;;7396017;19;20345;-85
2023/10/13 16:14:22;;;;;;;0.50;0.50;;;;;;;;;;7396982;19;20414;-87
2023/10/13 16:16:52;;;;;;;0.30;0.30;;;;;;;;;;7396780;19;20353;-87
2023/10/13 16:19:23;;;;;;;0.50;0.50;;;;;;;;;;7392526;19;20359;-86
2023/10/13 16:21:51;;;;;;;0.60;0.60;;;;;;;;;;7398333;19;20355;-86
2023/10/13 16:24:18;;;;;;;0.47;0.47;;;;;;;;;;7397220;19;20353;-87
2023/10/13 16:26:49;;;;;;;0.30;0.30;;;;;;;;;;7395530;19;20424;-86
2023/10/13 16:29:16;;;;;;;0.50;0.50;;;;;;;;;;7396570;19;20355;-86
2023/10/13 16:31:45;;;;;;;0.52;0.52;;;;;;;;;;7390746;19;20380;-86
2023/10/13 16:34:16;;;;;;;0.40;0.40;;;;;;;;;;7396772;19;20348;-86
2023/10/13 16:36:44;;;;;;;0.50;0.50;;;;;;;;;;7391276;19;20340;-87
2023/10/13 16:39:14;;;;;;;0.63;0.63;;;;;;;;;;7390321;19;20371;-87
2023/10/13 16:41:45;;;;;;;1.20;1.10;;;;;;;;;;7393623;19;20361;-88
2023/10/13 16:44:12;;;;;;;1.20;0.50;;;;;;;;;;7394311;19;20373;-89
2023/10/13 16:46:40;;;;;;;0.57;0.57;;;;;;;;;;7388776;19;20865;-89
2023/10/13 16:49:08;;;;;;;0.40;0.40;;;;;;;;;;7390662;19;20360;-90
2023/10/13 16:51:35;;;;;;;0.40;0.40;;;;;;;;;;7384864;19;20339;-89
2023/10/13 16:54:02;;;;;;;0.50;0.50;;;;;;;;;;7394969;19;20416;-89
2023/10/13 16:56:29;;;;;;;0.60;0.60;;;;;;;;;;7391741;19;20352;-89
2023/10/13 16:58:56;;;;;;;0.55;0.55;;;;;;;;;;7378799;19;20421;-89
2023/10/13 17:01:23;;;;;;;0.40;0.40;;;;;;;;;;7368618;19;20700;-89
2023/10/13 17:03:50;;;;;;;0.63;0.40;;;;;;;;;;7379555;19;20351;-89
2023/10/13 17:06:17;;;;;;;0.40;0.40;;;;;;;;;;7368065;19;20348;-89
2023/10/13 17:08:44;;;;;;;0.38;0.38;;;;;;;;;;7385165;19;20337;-89
2023/10/13 17:11:11;;;;;;;0.45;0.45;;;;;;;;;;7386854;19;20425;-88
2023/10/13 17:13:39;;;;;;;0.60;0.60;;;;;;;;;;7388026;19;20368;-89
2023/10/13 17:16:19;;;;;;;0.40;0.40;;;;;;;;;;7376612;19;20355;-88
2023/10/13 17:18:47;;;;;;;0.55;0.55;;;;;;;;;;7380676;19;20392;-88
2023/10/13 17:21:22;;;;;;;1.00;0.90;;;;;;;;;;7385244;19;20941;-88
2023/10/13 17:23:52;;;;;;;0.60;0.60;;;;;;;;;;7387563;19;20344;-89
2023/10/13 17:26:21;;;;;;;0.50;0.50;;;;;;;;;;7383797;19;20370;-88
2023/10/13 17:28:47;;;;;;;1.55;0.85;;;;;;;;;;7383006;19;20351;-89
2023/10/13 17:31:14;;;;;;;0.55;0.55;;;;;;;;;;7383858;19;20355;-89
2023/10/13 17:33:41;;;;;;;0.40;0.40;;;;;;;;;;7394006;19;20372;-89
2023/10/13 17:36:09;;;;;;;0.73;0.73;;;;;;;;;;7393807;19;20343;-89
2023/10/13 17:38:37;;;;;;;0.50;0.50;;;;;;;;;;7395188;19;20948;-89
2023/10/13 17:41:05;;;;;;;0.40;0.40;;;;;;;;;;7394528;19;20347;-89
2023/10/13 17:43:34;;;;;;;0.45;0.45;;;;;;;;;;7397308;19;20357;-89
2023/10/13 17:46:09;;;;;;;0.52;0.52;;;;;;;;;;7393876;19;20367;-89
2023/10/13 17:48:37;;;;;;;1.00;0.90;;;;;;;;;;7397015;19;20699;-89
2023/10/13 17:51:10;;;;;;;1.20;1.20;;;;;;;;;;7394885;19;20525;-89
2023/10/13 17:53:37;;;;;;;;;;;;;;;;;;7395096;19;20021;-90
2023/10/13 17:56:19;;;;;;;;;;;;;;;;;;7392718;19;19915;-89
2023/10/13 17:58:46;;;;;;;;;;;;;;;;;;7397824;19;20662;-89
2023/10/13 18:01:17;;;;;;;1.20;1.15;;;;;;;;;;7403527;19;20374;-89
2023/10/13 18:03:52;;;;;;;;;;;;;;;;;;7423945;19;20026;-89
2023/10/13 18:06:20;;;;;;;;;;;;;;;;;;7404624;19;19911;-89
2023/10/13 18:08:49;;;;;;;;;;;;;;;;;;7394938;19;20336;-89
2023/10/13 18:11:16;;;;;;;;;;;;;;;;;;7396569;19;19919;-89
2023/10/13 18:13:45;;;;;;;;;;;;;;;;;;7396336;19;19911;-89
2023/10/13 18:16:16;;;;;;;0.30;0.30;;;;;;;;;;7398658;19;20539;-89
2023/10/13 18:18:43;;;;;;;0.60;0.60;;;;;;;;;;7396048;19;20352;-89
2023/10/13 18:21:11;;;;;;;0.60;0.60;;;;;;;;;;7386107;19;20439;-90
2023/10/13 18:23:42;;;;;;;0.60;0.60;;;;;;;;;;7392100;19;20353;-89
2023/10/13 18:26:15;;;;;;;2.37;0.97;;;;;;;;;;7386862;19;20352;-90
2023/10/13 18:28:42;;;;;;;0.50;0.50;;;;;;;;;;7385371;19;20913;-90
2023/10/13 18:31:12;;;;;;;0.40;0.40;;;;;;;;;;7393666;19;20467;-90
2023/10/13 18:33:40;;;;;;;0.43;0.43;;;;;;;;;;7393213;19;20367;-87
2023/10/13 18:36:24;;;;;;;0.80;0.80;;;;;;;;;;7383598;19;20351;-89
2023/10/13 18:38:51;;;;;;;0.60;0.60;;;;;;;;;;7390755;19;20392;-89
2023/10/13 18:41:25;;;;;;;0.30;0.30;;;;;;;;;;7385773;19;20393;-90
2023/10/13 18:43:54;;;;;;;0.50;0.50;;;;;;;;;;7386434;19;20348;-90
2023/10/13 18:46:21;;;;;;;0.40;0.40;;;;;;;;;;7387377;19;20352;-90
2023/10/13 18:48:48;;;;;;;0.50;0.50;;;;;;;;;;7391370;19;20889;-90
2023/10/13 18:51:17;;;;;;;0.40;0.40;;;;;;;;;;7387658;19;20345;-91
2023/10/13 18:53:45;;;;;;;1.20;1.10;;;;;;;;;;7388387;19;20893;-89
2023/10/13 18:56:14;;;;;;;0.70;0.57;;;;;;;;;;7384880;19;20944;-89
2023/10/13 18:58:55;;;;;;;0.43;0.43;;;;;;;;;;7387454;19;20340;-90